This is the latest recevied weather packets stored in our database for station/object KB4MOX. If no packets are shown the sender has not sent any weather packets the latest 10 day(s).
| Time | Temp. | Humidity | Pressure | Rain* | Wind** | Luminosity | Snow |
|---|---|---|---|---|---|---|---|
| 1778187218 | 24.44° C | 79% | 1010.7 hPa | 0 mm | - | 291 W/m² | - |
| 1778186914 | 23.89° C | 80% | 1010.5 hPa | 0 mm | - | 207 W/m² | - |
| 1778186611 | 24.44° C | 78% | 1010.7 hPa | 0 mm | - | 195 W/m² | - |
| 1778186309 | 23.89° C | 80% | 1010.6 hPa | 0 mm | - | 191 W/m² | - |
| 1778186007 | 23.89° C | 81% | 1010.6 hPa | 0 mm | - | 199 W/m² | - |
| 1778185703 | 23.89° C | 81% | 1010.9 hPa | 0 mm | - | 157 W/m² | - |
| 1778185399 | 23.89° C | 80% | 1010.7 hPa | 0 mm | - | 176 W/m² | - |
| 1778185095 | 24.44° C | 79% | 1010.7 hPa | 0 mm | - | 122 W/m² | - |
| 1778184791 | 24.44° C | 77% | 1010.7 hPa | 0 mm | - | 217 W/m² | - |
| 1778184487 | 24.44° C | 78% | 1010.9 hPa | 0 mm | - | 235 W/m² | - |
| 1778184183 | 23.89° C | 82% | 1010.9 hPa | 0 mm | - | 294 W/m² | - |
| 1778183879 | 23.33° C | 83% | 1010.7 hPa | 0 mm | - | 263 W/m² | - |
| 1778183577 | 23.33° C | 83% | 1011 hPa | 0 mm | - | 154 W/m² | - |
| 1778183274 | 23.33° C | 83% | 1011 hPa | 0 mm | - | 137 W/m² | - |
| 1778182970 | 23.33° C | 85% | 1011 hPa | 0 mm | - | 241 W/m² | - |
| 1778182667 | 22.78° C | 86% | 1011.1 hPa | 0 mm | - | 194 W/m² | - |
| 1778182364 | 22.78° C | 85% | 1011.2 hPa | 0 mm | - | 117 W/m² | - |
| 1778182060 | 22.78° C | 86% | 1010.9 hPa | 0 mm | - | 126 W/m² | - |
| 1778181756 | 22.78° C | 86% | 1011.1 hPa | 0 mm | - | 114 W/m² | - |
| 1778181452 | 22.78° C | 86% | 1011.2 hPa | 0 mm | - | 83 W/m² | - |
| 1778181150 | 22.78° C | 85% | 1011.1 hPa | 0 mm | - | 96 W/m² | - |
| 1778180846 | 22.78° C | 85% | 1011.1 hPa | 0 mm | - | 92 W/m² | - |
| 1778180545 | 22.78° C | 84% | 1011.1 hPa | 0 mm | - | 126 W/m² | - |
| 1778180243 | 22.78° C | 84% | 1011 hPa | 0 mm | - | 116 W/m² | - |
| 1778179940 | 23.33° C | 83% | 1011 hPa | 0 mm | - | 113 W/m² | - |
* Rain latest hour (hover to see other rain measurements)
** Current wind speed in m/s (hover to see current wind gust speed)